Grahn, KY

5:58 PM EDT on July 31, 2014 (GMT -0400)
Green (KKYOLIVE2) Elev 883 ft | 38.19 °N, 83.08 °W | Change Station

Current weather conditions updated 5 minutes ago

Clear
Clear
77.9 °F
Feels Like 78 °F
N
0.0
Wind Variable Wind from North
Gusts 0.0 mph

Tomorrow is forecast to be Cooler than today. Afternoon thunderstorms.

Today
High -- | Low -- °F
--% Chance of Precip.
Yesterday
High -- | Low -- °F
Precip. -- in
6:33 AM 8:43 PM
Waxing Crescent, 21% visible
Pressure 30.06 in
Visibility 10.0 miles
Clouds Clear
Heat Index 78 °F
Dew Point 42 °F
Humidity 28%
Rainfall -999.00 in
Snow Depth Not available.
UV 3 out of 12
Pollen 5.70 out of 12
Air Quality Not available.
Flu Activity Not available.
METAR KHTS 312151Z VRB04KT 10SM CLR 27/13 A3008 RMK AO2 SLP180 T02670133

More Conditions Fewer Conditions

Pressure 30.06 in
Visibility 10.0 miles
Clouds Clear
Heat Index 78 °F
Dew Point 42 °F
Humidity 28%
Rainfall -999.00 in
Snow Depth Not available.
UV 3 out of 12
Pollen 5.70 out of 12
Air Quality Not available.
Flu Activity Not available.
METAR KHTS 312151Z VRB04KT 10SM CLR 27/13 A3008 RMK AO2 SLP180 T02670133

More Conditions Fewer Conditions

10-Day Weather Forecast

Almanac

Astronomy

Jul. 31, 2014 Rise Set
Actual Time 6:33 AM EDT 8:43 PM EDT
Civil Twilight 6:04 AM EDT 9:12 PM EDT
Nautical Twilight 5:28 AM EDT 9:48 PM EDT
Astronomical Twilight 4:49 AM EDT 10:27 PM EDT
Moon 10:55 AM EDT 11:00 PM EDT
Length of Visible Light 15h 08m
Length of Day
14h 09m
Tomorrow will be 1m 51s shorter.
Waxing Crescent, 21% of the Moon is Illuminated
Today
Waxing Crescent
Aug 3
First Quarter
Aug 10
Full
Aug 17
Last Quarter
Aug 25
New

Today's Extremes

State Highs State Lows

Community

WunderPhotos

Upload Photos

1,739,457 photos uploaded!

Nearby

Snow Depth

Station Depth Elevation
No new snow has been reported.

Earthquake Activity

City Distance Mag. Time & Date
No recent earthquake activity has been reported nearby.
Minimum magnitude displayed is 2.5.

Coastal Water Temperatures

Place Temperature
No Stations Reporting

Nearby Weather Stations

Station Location Temp. Heat Index Dew Point Humidity Wind Precip. Elev Updated Type
Green, Olive Hill, KY 77.9 °F 78 °F 42 °F 28% North  at  0.0 mph 0.00 in / hr 883 ft 5:53 PM EDT Normal
RAWS TRIANGLE MTN KY, Morehead, KY 82 °F 82 °F 59 °F 46% West  at  2 mph 0.00 in / hr 1359 ft 5:02 PM EDT MADIS

Show More Stations Show Fewer Stations